sensor_id;sensor_type;location;lat;lon;timestamp;pressure;altitude;pressure_sealevel;temperature;humidity
4326;BME280;58429;49.826;10.880;2023-11-19T00:00:25;98571;;;5.54;91.65
4326;BME280;58429;49.826;10.880;2023-11-19T00:01:25;98556;;;5.58;91.68
4326;BME280;58429;49.826;10.880;2023-11-19T00:02:25;98564;;;5.58;91.7
4326;BME280;58429;49.826;10.880;2023-11-19T00:03:25;98555;;;5.54;91.64
4326;BME280;58429;49.826;10.880;2023-11-19T00:04:25;98552;;;5.56;91.72
4326;BME280;58429;49.826;10.880;2023-11-19T00:05:25;98545;;;5.53;91.64
4326;BME280;58429;49.826;10.880;2023-11-19T00:06:25;98543;;;5.55;91.64
4326;BME280;58429;49.826;10.880;2023-11-19T00:07:25;98539;;;5.54;91.71
4326;BME280;58429;49.826;10.880;2023-11-19T00:08:25;98533;;;5.52;91.69
4326;BME280;58429;49.826;10.880;2023-11-19T00:09:25;98533;;;5.59;91.69
4326;BME280;58429;49.826;10.880;2023-11-19T00:10:25;98543;;;5.54;91.63
4326;BME280;58429;49.826;10.880;2023-11-19T00:11:25;98537;;;5.56;91.69
4326;BME280;58429;49.826;10.880;2023-11-19T00:12:25;98536;;;5.52;91.71
4326;BME280;58429;49.826;10.880;2023-11-19T00:13:25;98540;;;5.56;91.75
4326;BME280;58429;49.826;10.880;2023-11-19T00:14:25;98534;;;5.53;91.66
4326;BME280;58429;49.826;10.880;2023-11-19T00:15:25;98537;;;5.54;91.64
4326;BME280;58429;49.826;10.880;2023-11-19T00:16:25;98541;;;5.58;91.68
4326;BME280;58429;49.826;10.880;2023-11-19T00:17:25;98550;;;5.56;91.64
4326;BME280;58429;49.826;10.880;2023-11-19T00:18:25;98545;;;5.59;91.63
4326;BME280;58429;49.826;10.880;2023-11-19T00:19:25;98543;;;5.6;91.71
4326;BME280;58429;49.826;10.880;2023-11-19T00:20:25;98531;;;5.59;91.8
4326;BME280;58429;49.826;10.880;2023-11-19T00:21:25;98530;;;5.56;91.74
4326;BME280;58429;49.826;10.880;2023-11-19T00:22:25;98542;;;5.56;91.71
4326;BME280;58429;49.826;10.880;2023-11-19T00:23:25;98545;;;5.58;91.73
4326;BME280;58429;49.826;10.880;2023-11-19T00:24:25;98545;;;5.58;91.76
4326;BME280;58429;49.826;10.880;2023-11-19T00:25:25;98543;;;5.59;91.77
4326;BME280;58429;49.826;10.880;2023-11-19T00:26:25;98552;;;5.59;91.71
4326;BME280;58429;49.826;10.880;2023-11-19T00:27:25;98544;;;5.6;91.8
4326;BME280;58429;49.826;10.880;2023-11-19T00:28:25;98555;;;5.55;91.78
4326;BME280;58429;49.826;10.880;2023-11-19T00:29:25;98549;;;5.59;91.78
4326;BME280;58429;49.826;10.880;2023-11-19T00:30:25;98544;;;5.6;91.75
4326;BME280;58429;49.826;10.880;2023-11-19T00:31:25;98537;;;5.6;91.73
4326;BME280;58429;49.826;10.880;2023-11-19T00:32:25;98538;;;5.61;91.76
4326;BME280;58429;49.826;10.880;2023-11-19T00:33:25;98534;;;5.6;91.72
4326;BME280;58429;49.826;10.880;2023-11-19T00:34:25;98532;;;5.62;91.76
4326;BME280;58429;49.826;10.880;2023-11-19T00:35:25;98528;;;5.62;91.75
4326;BME280;58429;49.826;10.880;2023-11-19T00:36:25;98518;;;5.59;91.72
4326;BME280;58429;49.826;10.880;2023-11-19T00:37:25;98517;;;5.61;91.76
4326;BME280;58429;49.826;10.880;2023-11-19T00:38:25;98509;;;5.6;91.73
4326;BME280;58429;49.826;10.880;2023-11-19T00:39:25;98513;;;5.61;91.71
4326;BME280;58429;49.826;10.880;2023-11-19T00:40:25;98519;;;5.62;91.68
4326;BME280;58429;49.826;10.880;2023-11-19T00:41:25;98511;;;5.62;91.7
4326;BME280;58429;49.826;10.880;2023-11-19T00:42:25;98502;;;5.62;91.74
4326;BME280;58429;49.826;10.880;2023-11-19T00:43:25;98499;;;5.62;91.73
4326;BME280;58429;49.826;10.880;2023-11-19T00:44:25;98499;;;5.66;91.73
4326;BME280;58429;49.826;10.880;2023-11-19T00:45:25;98497;;;5.62;91.7
4326;BME280;58429;49.826;10.880;2023-11-19T00:46:25;98497;;;5.62;91.8
4326;BME280;58429;49.826;10.880;2023-11-19T00:47:25;98494;;;5.6;91.8
4326;BME280;58429;49.826;10.880;2023-11-19T00:48:25;98489;;;5.61;91.78
4326;BME280;58429;49.826;10.880;2023-11-19T00:49:25;98487;;;5.63;91.84
4326;BME280;58429;49.826;10.880;2023-11-19T00:50:25;98487;;;5.62;91.8
4326;BME280;58429;49.826;10.880;2023-11-19T00:51:25;98492;;;5.63;91.83
4326;BME280;58429;49.826;10.880;2023-11-19T00:52:25;98478;;;5.64;91.79
4326;BME280;58429;49.826;10.880;2023-11-19T00:53:25;98484;;;5.61;91.85
4326;BME280;58429;49.826;10.880;2023-11-19T00:54:25;98471;;;5.6;91.87
4326;BME280;58429;49.826;10.880;2023-11-19T00:55:25;98475;;;5.63;91.85
4326;BME280;58429;49.826;10.880;2023-11-19T00:56:25;98480;;;5.64;91.9
4326;BME280;58429;49.826;10.880;2023-11-19T00:57:25;98485;;;5.64;91.89
4326;BME280;58429;49.826;10.880;2023-11-19T00:58:25;98473;;;5.6;91.9
4326;BME280;58429;49.826;10.880;2023-11-19T00:59:25;98476;;;5.6;91.88
4326;BME280;58429;49.826;10.880;2023-11-19T01:00:25;98487;;;5.62;91.87
4326;BME280;58429;49.826;10.880;2023-11-19T01:01:25;98486;;;5.62;91.91
4326;BME280;58429;49.826;10.880;2023-11-19T01:02:25;98502;;;5.64;91.93
4326;BME280;58429;49.826;10.880;2023-11-19T01:03:26;98506;;;5.63;91.91
4326;BME280;58429;49.826;10.880;2023-11-19T01:04:25;98498;;;5.61;91.89
4326;BME280;58429;49.826;10.880;2023-11-19T01:05:25;98501;;;5.65;91.91
4326;BME280;58429;49.826;10.880;2023-11-19T01:06:27;98500;;;5.63;91.93
4326;BME280;58429;49.826;10.880;2023-11-19T01:07:25;98501;;;5.64;91.91
4326;BME280;58429;49.826;10.880;2023-11-19T01:08:25;98509;;;5.61;91.95
4326;BME280;58429;49.826;10.880;2023-11-19T01:09:25;98516;;;5.65;91.93
4326;BME280;58429;49.826;10.880;2023-11-19T01:10:25;98513;;;5.66;91.9
4326;BME280;58429;49.826;10.880;2023-11-19T01:11:25;98509;;;5.64;91.92
4326;BME280;58429;49.826;10.880;2023-11-19T01:12:25;98504;;;5.64;91.9
4326;BME280;58429;49.826;10.880;2023-11-19T01:13:25;98507;;;5.63;91.91
4326;BME280;58429;49.826;10.880;2023-11-19T01:14:25;98504;;;5.63;91.89
4326;BME280;58429;49.826;10.880;2023-11-19T01:15:25;98498;;;5.67;91.89
4326;BME280;58429;49.826;10.880;2023-11-19T01:16:25;98501;;;5.64;91.87
4326;BME280;58429;49.826;10.880;2023-11-19T01:17:25;98494;;;5.67;91.89
4326;BME280;58429;49.826;10.880;2023-11-19T01:18:25;98501;;;5.68;91.9
4326;BME280;58429;49.826;10.880;2023-11-19T01:19:25;98496;;;5.68;91.92
4326;BME280;58429;49.826;10.880;2023-11-19T01:20:25;98493;;;5.67;91.95
4326;BME280;58429;49.826;10.880;2023-11-19T01:21:25;98493;;;5.68;91.97
4326;BME280;58429;49.826;10.880;2023-11-19T01:22:25;98492;;;5.69;91.92
4326;BME280;58429;49.826;10.880;2023-11-19T01:23:25;98505;;;5.7;91.96
4326;BME280;58429;49.826;10.880;2023-11-19T01:24:25;98505;;;5.69;91.95
4326;BME280;58429;49.826;10.880;2023-11-19T01:25:25;98506;;;5.68;91.95
4326;BME280;58429;49.826;10.880;2023-11-19T01:26:25;98503;;;5.67;91.92
4326;BME280;58429;49.826;10.880;2023-11-19T01:27:25;98502;;;5.69;91.92
4326;BME280;58429;49.826;10.880;2023-11-19T01:28:25;98500;;;5.73;91.92
4326;BME280;58429;49.826;10.880;2023-11-19T01:29:25;98501;;;5.73;91.89
4326;BME280;58429;49.826;10.880;2023-11-19T01:30:25;98501;;;5.72;91.88
4326;BME280;58429;49.826;10.880;2023-11-19T01:31:25;98490;;;5.73;91.88
4326;BME280;58429;49.826;10.880;2023-11-19T01:32:25;98495;;;5.76;91.88
4326;BME280;58429;49.826;10.880;2023-11-19T01:33:25;98501;;;5.77;91.88
4326;BME280;58429;49.826;10.880;2023-11-19T01:34:25;98496;;;5.75;91.86
4326;BME280;58429;49.826;10.880;2023-11-19T01:35:25;98495;;;5.75;91.84
4326;BME280;58429;49.826;10.880;2023-11-19T01:36:25;98494;;;5.75;91.86
4326;BME280;58429;49.826;10.880;2023-11-19T01:37:25;98492;;;5.74;91.83
4326;BME280;58429;49.826;10.880;2023-11-19T01:38:25;98492;;;5.74;91.84
4326;BME280;58429;49.826;10.880;2023-11-19T01:39:25;98489;;;5.77;91.81
4326;BME280;58429;49.826;10.880;2023-11-19T01:40:25;98475;;;5.76;91.83
4326;BME280;58429;49.826;10.880;2023-11-19T01:41:25;98484;;;5.76;91.86
4326;BME280;58429;49.826;10.880;2023-11-19T01:42:25;98476;;;5.74;91.9
4326;BME280;58429;49.826;10.880;2023-11-19T01:43:34;98471;;;5.76;91.89
4326;BME280;58429;49.826;10.880;2023-11-19T01:44:25;98473;;;5.74;91.85
4326;BME280;58429;49.826;10.880;2023-11-19T01:45:27;98469;;;5.77;91.84
4326;BME280;58429;49.826;10.880;2023-11-19T01:46:25;98465;;;5.77;91.82
4326;BME280;58429;49.826;10.880;2023-11-19T01:47:25;98461;;;5.77;91.81
4326;BME280;58429;49.826;10.880;2023-11-19T01:48:26;98465;;;5.77;91.83
4326;BME280;58429;49.826;10.880;2023-11-19T01:49:25;98459;;;5.79;91.83
4326;BME280;58429;49.826;10.880;2023-11-19T01:50:25;98460;;;5.79;91.8
4326;BME280;58429;49.826;10.880;2023-11-19T01:51:25;98456;;;5.78;91.81
4326;BME280;58429;49.826;10.880;2023-11-19T01:52:25;98460;;;5.79;91.8
4326;BME280;58429;49.826;10.880;2023-11-19T01:53:25;98445;;;5.8;91.81
4326;BME280;58429;49.826;10.880;2023-11-19T01:54:25;98452;;;5.78;91.8
4326;BME280;58429;49.826;10.880;2023-11-19T01:55:26;98451;;;5.8;91.81
4326;BME280;58429;49.826;10.880;2023-11-19T01:56:25;98444;;;5.78;91.82
4326;BME280;58429;49.826;10.880;2023-11-19T01:57:25;98444;;;5.8;91.83
4326;BME280;58429;49.826;10.880;2023-11-19T01:58:25;98442;;;5.79;91.8
4326;BME280;58429;49.826;10.880;2023-11-19T01:59:25;98445;;;5.83;91.83
4326;BME280;58429;49.826;10.880;2023-11-19T02:00:25;98444;;;5.8;91.83
4326;BME280;58429;49.826;10.880;2023-11-19T02:01:25;98449;;;5.8;91.82
4326;BME280;58429;49.826;10.880;2023-11-19T02:02:25;98454;;;5.8;91.83
4326;BME280;58429;49.826;10.880;2023-11-19T02:03:25;98442;;;5.81;91.91
4326;BME280;58429;49.826;10.880;2023-11-19T02:04:26;98446;;;5.79;91.97
4326;BME280;58429;49.826;10.880;2023-11-19T02:05:25;98450;;;5.81;91.97
4326;BME280;58429;49.826;10.880;2023-11-19T02:06:25;98445;;;5.83;92.05
4326;BME280;58429;49.826;10.880;2023-11-19T02:07:25;98449;;;5.81;92.05
4326;BME280;58429;49.826;10.880;2023-11-19T02:08:25;98437;;;5.81;92.02
4326;BME280;58429;49.826;10.880;2023-11-19T02:09:25;98435;;;5.83;91.99
4326;BME280;58429;49.826;10.880;2023-11-19T02:10:26;98433;;;5.8;91.97
4326;BME280;58429;49.826;10.880;2023-11-19T02:11:26;98434;;;5.81;92.04
4326;BME280;58429;49.826;10.880;2023-11-19T02:12:26;98429;;;5.83;92.01
4326;BME280;58429;49.826;10.880;2023-11-19T02:13:26;98430;;;5.82;92.08
4326;BME280;58429;49.826;10.880;2023-11-19T02:14:26;98434;;;5.82;92.09
4326;BME280;58429;49.826;10.880;2023-11-19T02:15:26;98434;;;5.84;92.06
4326;BME280;58429;49.826;10.880;2023-11-19T02:16:25;98440;;;5.83;92.01
4326;BME280;58429;49.826;10.880;2023-11-19T02:17:26;98445;;;5.85;92.05
4326;BME280;58429;49.826;10.880;2023-11-19T02:18:26;98437;;;5.84;92.07
4326;BME280;58429;49.826;10.880;2023-11-19T02:19:26;98441;;;5.85;92.11
4326;BME280;58429;49.826;10.880;2023-11-19T02:20:25;98437;;;5.84;92.12
4326;BME280;58429;49.826;10.880;2023-11-19T02:21:25;98437;;;5.83;92.18
4326;BME280;58429;49.826;10.880;2023-11-19T02:22:25;98437;;;5.83;92.18
4326;BME280;58429;49.826;10.880;2023-11-19T02:23:26;98432;;;5.82;92.21
4326;BME280;58429;49.826;10.880;2023-11-19T02:24:26;98436;;;5.83;92.22
4326;BME280;58429;49.826;10.880;2023-11-19T02:25:28;98435;;;5.85;92.2
4326;BME280;58429;49.826;10.880;2023-11-19T02:26:26;98428;;;5.83;92.29
4326;BME280;58429;49.826;10.880;2023-11-19T02:27:27;98430;;;5.8;92.28
4326;BME280;58429;49.826;10.880;2023-11-19T02:28:26;98430;;;5.81;92.31
4326;BME280;58429;49.826;10.880;2023-11-19T02:29:26;98428;;;5.82;92.29
4326;BME280;58429;49.826;10.880;2023-11-19T02:30:26;98431;;;5.83;92.38
4326;BME280;58429;49.826;10.880;2023-11-19T02:31:26;98435;;;5.83;92.29
4326;BME280;58429;49.826;10.880;2023-11-19T02:32:27;98435;;;5.83;92.3
4326;BME280;58429;49.826;10.880;2023-11-19T02:33:26;98433;;;5.84;92.27
4326;BME280;58429;49.826;10.880;2023-11-19T02:34:26;98438;;;5.84;92.29
4326;BME280;58429;49.826;10.880;2023-11-19T02:35:26;98433;;;5.82;92.31
4326;BME280;58429;49.826;10.880;2023-11-19T02:36:26;98434;;;5.83;92.32
4326;BME280;58429;49.826;10.880;2023-11-19T02:37:26;98426;;;5.82;92.32
4326;BME280;58429;49.826;10.880;2023-11-19T02:38:26;98419;;;5.84;92.34
4326;BME280;58429;49.826;10.880;2023-11-19T02:39:26;98424;;;5.84;92.35
4326;BME280;58429;49.826;10.880;2023-11-19T02:40:26;98421;;;5.82;92.38
4326;BME280;58429;49.826;10.880;2023-11-19T02:41:26;98414;;;5.83;92.37
4326;BME280;58429;49.826;10.880;2023-11-19T02:42:26;98411;;;5.84;92.41
4326;BME280;58429;49.826;10.880;2023-11-19T02:43:26;98421;;;5.81;92.41
4326;BME280;58429;49.826;10.880;2023-11-19T02:44:26;98410;;;5.83;92.43
4326;BME280;58429;49.826;10.880;2023-11-19T02:45:26;98414;;;5.84;92.43
4326;BME280;58429;49.826;10.880;2023-11-19T02:46:26;98404;;;5.84;92.41
4326;BME280;58429;49.826;10.880;2023-11-19T02:47:26;98405;;;5.83;92.37
4326;BME280;58429;49.826;10.880;2023-11-19T02:48:26;98405;;;5.85;92.36
4326;BME280;58429;49.826;10.880;2023-11-19T02:49:26;98397;;;5.86;92.36
4326;BME280;58429;49.826;10.880;2023-11-19T02:50:26;98399;;;5.85;92.35
4326;BME280;58429;49.826;10.880;2023-11-19T02:51:26;98396;;;5.85;92.36
4326;BME280;58429;49.826;10.880;2023-11-19T02:52:26;98394;;;5.86;92.36
4326;BME280;58429;49.826;10.880;2023-11-19T02:53:26;98391;;;5.86;92.37
4326;BME280;58429;49.826;10.880;2023-11-19T02:54:26;98392;;;5.83;92.4
4326;BME280;58429;49.826;10.880;2023-11-19T02:55:26;98383;;;5.86;92.36
4326;BME280;58429;49.826;10.880;2023-11-19T02:56:26;98381;;;5.85;92.33
4326;BME280;58429;49.826;10.880;2023-11-19T02:57:31;98378;;;5.89;92.34
4326;BME280;58429;49.826;10.880;2023-11-19T02:58:26;98371;;;5.88;92.32
4326;BME280;58429;49.826;10.880;2023-11-19T02:59:26;98364;;;5.89;92.32
4326;BME280;58429;49.826;10.880;2023-11-19T03:00:26;98366;;;5.87;92.3
4326;BME280;58429;49.826;10.880;2023-11-19T03:01:26;98359;;;5.94;92.3
4326;BME280;58429;49.826;10.880;2023-11-19T03:02:26;98353;;;5.88;92.28
4326;BME280;58429;49.826;10.880;2023-11-19T03:03:26;98351;;;5.93;92.3
4326;BME280;58429;49.826;10.880;2023-11-19T03:04:26;98356;;;5.91;92.3
4326;BME280;58429;49.826;10.880;2023-11-19T03:05:26;98349;;;5.92;92.31
4326;BME280;58429;49.826;10.880;2023-11-19T03:06:26;98346;;;5.96;92.29
4326;BME280;58429;49.826;10.880;2023-11-19T03:07:26;98343;;;5.9;92.25
4326;BME280;58429;49.826;10.880;2023-11-19T03:08:26;98336;;;5.91;92.24
4326;BME280;58429;49.826;10.880;2023-11-19T03:09:26;98340;;;5.94;92.26
4326;BME280;58429;49.826;10.880;2023-11-19T03:10:26;98335;;;5.97;92.25
4326;BME280;58429;49.826;10.880;2023-11-19T03:11:26;98318;;;5.98;92.25
4326;BME280;58429;49.826;10.880;2023-11-19T03:12:26;98321;;;5.97;92.23
4326;BME280;58429;49.826;10.880;2023-11-19T03:13:26;98314;;;5.98;92.23
4326;BME280;58429;49.826;10.880;2023-11-19T03:14:26;98311;;;5.98;92.22
4326;BME280;58429;49.826;10.880;2023-11-19T03:15:26;98310;;;6.04;92.21
4326;BME280;58429;49.826;10.880;2023-11-19T03:16:26;98316;;;5.99;92.2
4326;BME280;58429;49.826;10.880;2023-11-19T03:17:26;98313;;;5.99;92.21
4326;BME280;58429;49.826;10.880;2023-11-19T03:18:26;98316;;;6.01;92.21
4326;BME280;58429;49.826;10.880;2023-11-19T03:19:26;98317;;;6.03;92.26
4326;BME280;58429;49.826;10.880;2023-11-19T03:20:26;98314;;;5.99;92.24
4326;BME280;58429;49.826;10.880;2023-11-19T03:21:27;98318;;;6.03;92.26
4326;BME280;58429;49.826;10.880;2023-11-19T03:22:26;98313;;;6.03;92.31
4326;BME280;58429;49.826;10.880;2023-11-19T03:23:26;98306;;;6.03;92.28
4326;BME280;58429;49.826;10.880;2023-11-19T03:24:26;98305;;;6.04;92.28
4326;BME280;58429;49.826;10.880;2023-11-19T03:25:26;98309;;;6.02;92.29
4326;BME280;58429;49.826;10.880;2023-11-19T03:26:26;98301;;;6.05;92.34
4326;BME280;58429;49.826;10.880;2023-11-19T03:27:26;98304;;;6.05;92.38
4326;BME280;58429;49.826;10.880;2023-11-19T03:28:26;98313;;;6.08;92.32
4326;BME280;58429;49.826;10.880;2023-11-19T03:29:26;98305;;;6.06;92.34
4326;BME280;58429;49.826;10.880;2023-11-19T03:30:26;98306;;;6.08;92.32
4326;BME280;58429;49.826;10.880;2023-11-19T03:31:26;98297;;;6.07;92.29
4326;BME280;58429;49.826;10.880;2023-11-19T03:32:26;98293;;;6.09;92.28
4326;BME280;58429;49.826;10.880;2023-11-19T03:33:26;98300;;;6.09;92.25
4326;BME280;58429;49.826;10.880;2023-11-19T03:34:26;98288;;;6.07;92.24
4326;BME280;58429;49.826;10.880;2023-11-19T03:35:26;98288;;;6.09;92.23
4326;BME280;58429;49.826;10.880;2023-11-19T03:36:31;98283;;;6.09;92.22
4326;BME280;58429;49.826;10.880;2023-11-19T03:37:26;98282;;;6.09;92.22
4326;BME280;58429;49.826;10.880;2023-11-19T03:38:26;98287;;;6.11;92.24
4326;BME280;58429;49.826;10.880;2023-11-19T03:39:26;98282;;;6.11;92.25
4326;BME280;58429;49.826;10.880;2023-11-19T03:40:26;98284;;;6.13;92.22
4326;BME280;58429;49.826;10.880;2023-11-19T03:41:26;98278;;;6.11;92.21
4326;BME280;58429;49.826;10.880;2023-11-19T03:42:26;98281;;;6.16;92.22
4326;BME280;58429;49.826;10.880;2023-11-19T03:43:26;98285;;;6.15;92.21
4326;BME280;58429;49.826;10.880;2023-11-19T03:44:26;98283;;;6.12;92.18
4326;BME280;58429;49.826;10.880;2023-11-19T03:45:26;98278;;;6.16;92.19
4326;BME280;58429;49.826;10.880;2023-11-19T03:46:26;98273;;;6.14;92.21
4326;BME280;58429;49.826;10.880;2023-11-19T03:47:26;98279;;;6.18;92.21
4326;BME280;58429;49.826;10.880;2023-11-19T03:48:26;98279;;;6.17;92.26
4326;BME280;58429;49.826;10.880;2023-11-19T03:49:26;98278;;;6.15;92.23
4326;BME280;58429;49.826;10.880;2023-11-19T03:50:26;98283;;;6.2;92.28
4326;BME280;58429;49.826;10.880;2023-11-19T03:51:26;98279;;;6.19;92.25
4326;BME280;58429;49.826;10.880;2023-11-19T03:52:26;98288;;;6.17;92.24
4326;BME280;58429;49.826;10.880;2023-11-19T03:53:26;98297;;;6.18;92.25
4326;BME280;58429;49.826;10.880;2023-11-19T03:54:26;98298;;;6.22;92.24
4326;BME280;58429;49.826;10.880;2023-11-19T03:55:26;98295;;;6.21;92.25
4326;BME280;58429;49.826;10.880;2023-11-19T03:56:26;98298;;;6.2;92.23
4326;BME280;58429;49.826;10.880;2023-11-19T03:57:26;98288;;;6.2;92.22
4326;BME280;58429;49.826;10.880;2023-11-19T03:58:26;98290;;;6.23;92.26
4326;BME280;58429;49.826;10.880;2023-11-19T03:59:26;98293;;;6.24;92.25
4326;BME280;58429;49.826;10.880;2023-11-19T04:00:26;98290;;;6.24;92.27
4326;BME280;58429;49.826;10.880;2023-11-19T04:01:26;98291;;;6.24;92.23
4326;BME280;58429;49.826;10.880;2023-11-19T04:02:26;98287;;;6.27;92.26
4326;BME280;58429;49.826;10.880;2023-11-19T04:03:26;98283;;;6.24;92.26
4326;BME280;58429;49.826;10.880;2023-11-19T04:04:26;98290;;;6.27;92.22
4326;BME280;58429;49.826;10.880;2023-11-19T04:05:26;98288;;;6.26;92.22
4326;BME280;58429;49.826;10.880;2023-11-19T04:06:26;98288;;;6.28;92.23
4326;BME280;58429;49.826;10.880;2023-11-19T04:07:26;98288;;;6.28;92.3
4326;BME280;58429;49.826;10.880;2023-11-19T04:08:26;98287;;;6.28;92.34
4326;BME280;58429;49.826;10.880;2023-11-19T04:09:26;98285;;;6.32;92.32
4326;BME280;58429;49.826;10.880;2023-11-19T04:10:26;98288;;;6.31;92.32
4326;BME280;58429;49.826;10.880;2023-11-19T04:11:26;98293;;;6.32;92.34
4326;BME280;58429;49.826;10.880;2023-11-19T04:12:26;98293;;;6.32;92.34
4326;BME280;58429;49.826;10.880;2023-11-19T04:13:26;98294;;;6.3;92.36
4326;BME280;58429;49.826;10.880;2023-11-19T04:14:26;98296;;;6.32;92.38
4326;BME280;58429;49.826;10.880;2023-11-19T04:15:26;98287;;;6.3;92.33
4326;BME280;58429;49.826;10.880;2023-11-19T04:16:26;98276;;;6.32;92.39
4326;BME280;58429;49.826;10.880;2023-11-19T04:17:26;98279;;;6.33;92.36
4326;BME280;58429;49.826;10.880;2023-11-19T04:18:26;98280;;;6.34;92.37
4326;BME280;58429;49.826;10.880;2023-11-19T04:19:26;98275;;;6.31;92.34
4326;BME280;58429;49.826;10.880;2023-11-19T04:20:26;98280;;;6.3;92.32
4326;BME280;58429;49.826;10.880;2023-11-19T04:21:26;98271;;;6.33;92.35
4326;BME280;58429;49.826;10.880;2023-11-19T04:22:26;98268;;;6.34;92.45
4326;BME280;58429;49.826;10.880;2023-11-19T04:23:26;98272;;;6.33;92.45
4326;BME280;58429;49.826;10.880;2023-11-19T04:24:26;98280;;;6.33;92.38
4326;BME280;58429;49.826;10.880;2023-11-19T04:25:26;98285;;;6.34;92.39
4326;BME280;58429;49.826;10.880;2023-11-19T04:26:26;98285;;;6.36;92.37
4326;BME280;58429;49.826;10.880;2023-11-19T04:27:26;98287;;;6.35;92.44
4326;BME280;58429;49.826;10.880;2023-11-19T04:28:26;98294;;;6.41;92.51
4326;BME280;58429;49.826;10.880;2023-11-19T04:29:26;98291;;;6.37;92.46
4326;BME280;58429;49.826;10.880;2023-11-19T04:30:26;98286;;;6.37;92.46
4326;BME280;58429;49.826;10.880;2023-11-19T04:31:28;98279;;;6.37;92.49
4326;BME280;58429;49.826;10.880;2023-11-19T04:32:26;98277;;;6.37;92.47
4326;BME280;58429;49.826;10.880;2023-11-19T04:33:26;98273;;;6.4;92.45
4326;BME280;58429;49.826;10.880;2023-11-19T04:34:26;98270;;;6.41;92.46
4326;BME280;58429;49.826;10.880;2023-11-19T04:35:26;98271;;;6.38;92.45
4326;BME280;58429;49.826;10.880;2023-11-19T04:36:26;98272;;;6.41;92.43
4326;BME280;58429;49.826;10.880;2023-11-19T04:37:26;98278;;;6.4;92.45
4326;BME280;58429;49.826;10.880;2023-11-19T04:38:26;98274;;;6.4;92.45
4326;BME280;58429;49.826;10.880;2023-11-19T04:39:26;98279;;;6.4;92.43
4326;BME280;58429;49.826;10.880;2023-11-19T04:40:26;98271;;;6.42;92.46
4326;BME280;58429;49.826;10.880;2023-11-19T04:41:26;98275;;;6.42;92.45
4326;BME280;58429;49.826;10.880;2023-11-19T04:42:26;98270;;;6.46;92.45
4326;BME280;58429;49.826;10.880;2023-11-19T04:43:26;98275;;;6.46;92.42
4326;BME280;58429;49.826;10.880;2023-11-19T04:44:26;98269;;;6.44;92.4
4326;BME280;58429;49.826;10.880;2023-11-19T04:45:26;98268;;;6.47;92.45
4326;BME280;58429;49.826;10.880;2023-11-19T04:46:26;98269;;;6.49;92.44
4326;BME280;58429;49.826;10.880;2023-11-19T04:47:26;98271;;;6.48;92.45
4326;BME280;58429;49.826;10.880;2023-11-19T04:48:26;98277;;;6.5;92.46
4326;BME280;58429;49.826;10.880;2023-11-19T04:49:26;98274;;;6.53;92.43
4326;BME280;58429;49.826;10.880;2023-11-19T04:50:26;98267;;;6.52;92.44
4326;BME280;58429;49.826;10.880;2023-11-19T04:51:26;98269;;;6.54;92.46
4326;BME280;58429;49.826;10.880;2023-11-19T04:52:26;98274;;;6.55;92.47
4326;BME280;58429;49.826;10.880;2023-11-19T04:53:26;98276;;;6.55;92.53
4326;BME280;58429;49.826;10.880;2023-11-19T04:54:26;98273;;;6.55;92.48
4326;BME280;58429;49.826;10.880;2023-11-19T04:55:26;98275;;;6.56;92.48
4326;BME280;58429;49.826;10.880;2023-11-19T04:56:26;98261;;;6.58;92.46
4326;BME280;58429;49.826;10.880;2023-11-19T04:57:26;98257;;;6.59;92.47
4326;BME280;58429;49.826;10.880;2023-11-19T04:58:28;98258;;;6.59;92.47
4326;BME280;58429;49.826;10.880;2023-11-19T04:59:26;98253;;;6.6;92.45
4326;BME280;58429;49.826;10.880;2023-11-19T05:00:26;98247;;;6.58;92.5
4326;BME280;58429;49.826;10.880;2023-11-19T05:01:26;98241;;;6.59;92.45
4326;BME280;58429;49.826;10.880;2023-11-19T05:02:26;98236;;;6.61;92.46
4326;BME280;58429;49.826;10.880;2023-11-19T05:03:26;98238;;;6.59;92.45
4326;BME280;58429;49.826;10.880;2023-11-19T05:04:26;98246;;;6.6;92.5
4326;BME280;58429;49.826;10.880;2023-11-19T05:05:26;98240;;;6.62;92.48
4326;BME280;58429;49.826;10.880;2023-11-19T05:06:26;98236;;;6.63;92.46
4326;BME280;58429;49.826;10.880;2023-11-19T05:07:26;98247;;;6.62;92.45
4326;BME280;58429;49.826;10.880;2023-11-19T05:08:27;98244;;;6.64;92.46
4326;BME280;58429;49.826;10.880;2023-11-19T05:09:26;98252;;;6.65;92.45
4326;BME280;58429;49.826;10.880;2023-11-19T05:10:26;98245;;;6.64;92.47
4326;BME280;58429;49.826;10.880;2023-11-19T05:11:26;98246;;;6.64;92.48
4326;BME280;58429;49.826;10.880;2023-11-19T05:12:26;98249;;;6.66;92.45
4326;BME280;58429;49.826;10.880;2023-11-19T05:13:26;98245;;;6.68;92.47
4326;BME280;58429;49.826;10.880;2023-11-19T05:14:27;98247;;;6.65;92.47
4326;BME280;58429;49.826;10.880;2023-11-19T05:15:26;98246;;;6.67;92.48
4326;BME280;58429;49.826;10.880;2023-11-19T05:16:26;98246;;;6.69;92.46
4326;BME280;58429;49.826;10.880;2023-11-19T05:17:26;98247;;;6.7;92.46
4326;BME280;58429;49.826;10.880;2023-11-19T05:18:26;98239;;;6.71;92.46
4326;BME280;58429;49.826;10.880;2023-11-19T05:19:26;98238;;;6.7;92.47
4326;BME280;58429;49.826;10.880;2023-11-19T05:20:26;98236;;;6.7;92.48
4326;BME280;58429;49.826;10.880;2023-11-19T05:21:26;98229;;;6.73;92.48
4326;BME280;58429;49.826;10.880;2023-11-19T05:22:26;98232;;;6.69;92.46
4326;BME280;58429;49.826;10.880;2023-11-19T05:23:26;98233;;;6.7;92.46
4326;BME280;58429;49.826;10.880;2023-11-19T05:24:27;98244;;;6.72;92.44
4326;BME280;58429;49.826;10.880;2023-11-19T05:25:26;98245;;;6.74;92.47
4326;BME280;58429;49.826;10.880;2023-11-19T05:26:26;98243;;;6.76;92.47
4326;BME280;58429;49.826;10.880;2023-11-19T05:27:26;98253;;;6.74;92.47
4326;BME280;58429;49.826;10.880;2023-11-19T05:28:26;98256;;;6.73;92.46
4326;BME280;58429;49.826;10.880;2023-11-19T05:29:26;98252;;;6.75;92.46
4326;BME280;58429;49.826;10.880;2023-11-19T05:30:26;98248;;;6.78;92.49
4326;BME280;58429;49.826;10.880;2023-11-19T05:31:26;98240;;;6.77;92.5
4326;BME280;58429;49.826;10.880;2023-11-19T05:32:27;98237;;;6.78;92.54
4326;BME280;58429;49.826;10.880;2023-11-19T05:33:27;98240;;;6.77;92.53
4326;BME280;58429;49.826;10.880;2023-11-19T05:34:27;98248;;;6.79;92.57
4326;BME280;58429;49.826;10.880;2023-11-19T05:35:26;98249;;;6.78;92.57
4326;BME280;58429;49.826;10.880;2023-11-19T05:36:26;98247;;;6.81;92.6